Time;durP1;ratioP1;P1;durP2;ratioP2;P2;SDS_P1;SDS_P2;PMS_P1;PMS_P2;Temp;Humidity;BMP_temperature;BMP_pressure;BME280_temperature;BME280_humidity;BME280_pressure;Samples;Min_cycle;Max_cycle;Signal;HPM_P1;HPM_P2
2023/04/21 00:00:44;;;;;;;34.50;17.20;;;;;;;;;;4912944;29;20067;-84
2023/04/21 00:03:10;;;;;;;36.38;18.00;;;;;;;;;;4915653;29;20517;-83
2023/04/21 00:05:41;;;;;;;37.38;18.92;;;;;;;;;;4922221;29;20070;-85
2023/04/21 00:08:08;;;;;;;34.58;17.08;;;;;;;;;;4943434;29;20056;-86
2023/04/21 00:10:34;;;;;;;34.97;18.13;;;;;;;;;;4940984;29;20054;-85
2023/04/21 00:13:01;;;;;;;32.13;16.52;;;;;;;;;;4951795;28;20091;-87
2023/04/21 00:15:27;;;;;;;33.83;16.75;;;;;;;;;;4947986;28;20509;-83
2023/04/21 00:17:54;;;;;;;30.35;15.85;;;;;;;;;;4934034;29;20043;-86
2023/04/21 00:20:22;;;;;;;34.28;16.55;;;;;;;;;;4944813;29;20068;-86
2023/04/21 00:22:49;;;;;;;28.48;15.73;;;;;;;;;;4940089;29;20139;-85
2023/04/21 00:25:16;;;;;;;31.33;16.42;;;;;;;;;;4921664;29;20066;-85
2023/04/21 00:27:42;;;;;;;36.55;18.40;;;;;;;;;;4919999;29;20044;-85
2023/04/21 00:30:09;;;;;;;34.08;16.98;;;;;;;;;;4938774;29;20040;-86
2023/04/21 00:32:36;;;;;;;37.22;18.45;;;;;;;;;;4903176;29;20044;-86
2023/04/21 00:35:03;;;;;;;39.80;18.40;;;;;;;;;;4918726;29;20506;-85
2023/04/21 00:37:29;;;;;;;34.83;17.42;;;;;;;;;;4936921;28;20059;-88
2023/04/21 00:39:57;;;;;;;34.90;16.92;;;;;;;;;;4952806;28;20091;-87
2023/04/21 00:42:24;;;;;;;32.75;17.48;;;;;;;;;;4941119;29;20440;-87
2023/04/21 00:44:51;;;;;;;32.70;16.70;;;;;;;;;;4938875;29;20054;-87
2023/04/21 00:47:17;;;;;;;38.10;17.00;;;;;;;;;;4907919;29;20070;-85
2023/04/21 00:49:45;;;;;;;37.85;17.33;;;;;;;;;;4922149;29;20130;-87
2023/04/21 00:52:12;;;;;;;34.50;16.88;;;;;;;;;;4939420;29;20063;-86
2023/04/21 00:54:40;;;;;;;38.95;17.70;;;;;;;;;;4919586;29;20079;-88
2023/04/21 00:57:07;;;;;;;33.53;17.13;;;;;;;;;;4918980;29;20051;-87
2023/04/21 00:59:35;;;;;;;34.40;16.00;;;;;;;;;;4919826;29;20048;-87
2023/04/21 01:02:04;;;;;;;39.85;16.73;;;;;;;;;;4918696;29;20505;-85
2023/04/21 01:04:35;;;;;;;32.38;16.23;;;;;;;;;;4919286;29;20525;-87
2023/04/21 01:07:03;;;;;;;42.95;17.38;;;;;;;;;;4924563;29;20052;-88
2023/04/21 01:09:30;;;;;;;36.17;17.20;;;;;;;;;;4921917;29;20413;-83
2023/04/21 01:12:03;;;;;;;35.47;16.88;;;;;;;;;;4900157;29;20058;-86
2023/04/21 01:14:33;;;;;;;36.50;16.83;;;;;;;;;;4902107;29;20697;-86
2023/04/21 01:16:59;;;;;;;32.22;16.10;;;;;;;;;;4917319;29;20052;-86
2023/04/21 01:19:29;;;;;;;34.22;16.80;;;;;;;;;;4929719;29;20048;-85
2023/04/21 01:21:57;;;;;;;33.88;16.65;;;;;;;;;;4912996;29;20500;-84
2023/04/21 01:24:24;;;;;;;35.65;16.60;;;;;;;;;;4914113;29;20106;-84
2023/04/21 01:26:50;;;;;;;36.03;16.83;;;;;;;;;;4915370;29;20056;-86
2023/04/21 01:29:17;;;;;;;34.30;16.83;;;;;;;;;;4903741;29;20048;-86
2023/04/21 01:31:46;;;;;;;38.40;17.88;;;;;;;;;;4898954;29;20066;-87
2023/04/21 01:34:13;;;;;;;40.55;16.92;;;;;;;;;;4929755;29;20050;-85
2023/04/21 01:36:39;;;;;;;33.08;16.80;;;;;;;;;;4915458;29;20051;-85
2023/04/21 01:39:06;;;;;;;34.72;15.52;;;;;;;;;;4916290;29;20052;-86
2023/04/21 01:41:32;;;;;;;37.38;17.10;;;;;;;;;;4923047;29;20044;-87
2023/04/21 01:43:59;;;;;;;33.05;16.10;;;;;;;;;;4921140;29;20127;-87
2023/04/21 01:46:26;;;;;;;33.08;16.65;;;;;;;;;;4937077;29;20036;-86
2023/04/21 01:48:55;;;;;;;34.35;16.45;;;;;;;;;;4919761;29;20052;-86
2023/04/21 01:51:21;;;;;;;32.58;16.17;;;;;;;;;;4934932;29;20032;-88
2023/04/21 01:53:48;;;;;;;37.90;16.42;;;;;;;;;;4950196;28;20100;-88
2023/04/21 01:56:15;;;;;;;41.53;18.25;;;;;;;;;;4940416;28;20056;-86
2023/04/21 01:58:42;;;;;;;35.88;16.38;;;;;;;;;;4924933;29;20039;-85
2023/04/21 02:01:08;;;;;;;38.92;17.83;;;;;;;;;;4939711;28;20047;-86
2023/04/21 02:03:36;;;;;;;42.42;17.73;;;;;;;;;;4939393;29;20058;-85
2023/04/21 02:06:03;;;;;;;41.00;17.30;;;;;;;;;;4921713;29;20048;-84
2023/04/21 02:08:30;;;;;;;37.38;17.17;;;;;;;;;;4938446;29;20074;-86
2023/04/21 02:10:56;;;;;;;35.00;16.67;;;;;;;;;;4922280;29;20047;-86
2023/04/21 02:13:23;;;;;;;37.15;16.08;;;;;;;;;;4938627;29;20413;-87
2023/04/21 02:15:50;;;;;;;35.08;15.00;;;;;;;;;;4921795;29;20701;-87
2023/04/21 02:18:33;;;;;;;32.13;15.13;;;;;;;;;;4921117;29;20047;-83
2023/04/21 02:20:59;;;;;;;39.28;15.98;;;;;;;;;;4921357;29;20054;-84
2023/04/21 02:23:26;;;;;;;36.15;15.85;;;;;;;;;;4922662;29;20044;-86
2023/04/21 02:25:53;;;;;;;35.80;15.00;;;;;;;;;;4943562;28;20051;-86
2023/04/21 02:28:19;;;;;;;31.42;14.82;;;;;;;;;;4934895;29;20039;-86
2023/04/21 02:30:46;;;;;;;36.05;14.48;;;;;;;;;;4918894;29;20118;-85
2023/04/21 02:33:12;;;;;;;34.42;14.77;;;;;;;;;;4931924;28;20051;-86
2023/04/21 02:35:39;;;;;;;32.03;14.10;;;;;;;;;;4938531;29;20051;-85
2023/04/21 02:38:07;;;;;;;30.73;13.88;;;;;;;;;;4957306;29;20496;-86
2023/04/21 02:40:34;;;;;;;32.83;14.68;;;;;;;;;;4947503;29;20047;-87
2023/04/21 02:43:02;;;;;;;27.35;13.70;;;;;;;;;;4942371;29;20127;-84
2023/04/21 02:45:30;;;;;;;32.42;14.45;;;;;;;;;;4946793;29;20051;-85
2023/04/21 02:47:58;;;;;;;28.50;13.18;;;;;;;;;;4964173;29;20063;-87
2023/04/21 02:50:25;;;;;;;32.15;14.43;;;;;;;;;;4959397;29;20047;-87
2023/04/21 02:52:51;;;;;;;31.95;13.63;;;;;;;;;;4942783;29;20048;-87
2023/04/21 02:55:18;;;;;;;31.50;14.50;;;;;;;;;;4922788;29;20099;-87
2023/04/21 02:57:44;;;;;;;34.83;14.95;;;;;;;;;;4923493;29;20056;-85
2023/04/21 03:00:12;;;;;;;30.85;14.10;;;;;;;;;;4923304;29;20048;-86
2023/04/21 03:02:39;;;;;;;29.25;13.93;;;;;;;;;;4922421;29;20056;-86
2023/04/21 03:05:07;;;;;;;30.13;13.60;;;;;;;;;;4922943;29;20047;-86
2023/04/21 03:07:35;;;;;;;38.58;14.57;;;;;;;;;;4937759;29;20043;-87
2023/04/21 03:10:03;;;;;;;30.05;13.30;;;;;;;;;;4921816;29;20058;-86
2023/04/21 03:12:29;;;;;;;28.77;13.00;;;;;;;;;;4922030;29;20054;-86
2023/04/21 03:14:56;;;;;;;35.35;14.30;;;;;;;;;;4921313;29;20673;-87
2023/04/21 03:17:23;;;;;;;31.55;13.38;;;;;;;;;;4937192;29;20059;-86
2023/04/21 03:19:50;;;;;;;28.98;12.93;;;;;;;;;;4921267;29;20073;-86
2023/04/21 03:22:16;;;;;;;27.85;13.32;;;;;;;;;;4938059;29;20063;-86
2023/04/21 03:24:43;;;;;;;26.95;12.48;;;;;;;;;;4920429;29;20107;-84
2023/04/21 03:27:12;;;;;;;25.13;12.00;;;;;;;;;;4920339;29;20044;-85
2023/04/21 03:29:39;;;;;;;23.42;12.52;;;;;;;;;;4932084;29;20047;-86
2023/04/21 03:32:05;;;;;;;24.75;11.95;;;;;;;;;;4931322;29;20096;-86
2023/04/21 03:34:32;;;;;;;25.50;11.68;;;;;;;;;;4940752;29;20059;-84
2023/04/21 03:37:02;;;;;;;28.55;11.68;;;;;;;;;;4941636;29;20044;-86
2023/04/21 03:39:29;;;;;;;22.10;10.90;;;;;;;;;;4956940;29;20306;-87
2023/04/21 03:41:56;;;;;;;31.13;11.57;;;;;;;;;;4942609;29;20051;-88
2023/04/21 03:44:27;;;;;;;24.98;11.45;;;;;;;;;;4940853;29;20058;-86
2023/04/21 03:46:54;;;;;;;25.73;11.75;;;;;;;;;;4957202;29;20113;-86
2023/04/21 03:49:22;;;;;;;22.15;11.63;;;;;;;;;;4956104;29;20515;-87
2023/04/21 03:51:49;;;;;;;22.05;11.43;;;;;;;;;;4955991;29;20078;-87
2023/04/21 03:54:15;;;;;;;25.23;11.65;;;;;;;;;;4957676;28;20047;-85
2023/04/21 03:56:42;;;;;;;30.65;12.02;;;;;;;;;;4921225;29;20055;-85
2023/04/21 03:59:08;;;;;;;23.42;11.52;;;;;;;;;;4936647;29;20044;-88
2023/04/21 04:01:35;;;;;;;31.05;12.63;;;;;;;;;;4921375;29;20068;-85
2023/04/21 04:04:01;;;;;;;20.98;11.48;;;;;;;;;;4904093;29;20251;-86
2023/04/21 04:06:29;;;;;;;30.25;11.10;;;;;;;;;;4921499;29;20056;-86
2023/04/21 04:08:55;;;;;;;29.85;11.30;;;;;;;;;;4935765;29;20533;-87
2023/04/21 04:11:22;;;;;;;25.90;12.15;;;;;;;;;;4921553;29;20119;-85
2023/04/21 04:13:48;;;;;;;25.90;12.45;;;;;;;;;;4940433;29;20059;-86
2023/04/21 04:16:15;;;;;;;35.55;13.88;;;;;;;;;;4905809;29;20131;-83
2023/04/21 04:18:42;;;;;;;33.28;14.32;;;;;;;;;;4913584;29;20462;-83
2023/04/21 04:21:09;;;;;;;31.48;14.30;;;;;;;;;;4914866;29;20052;-84
2023/04/21 04:23:35;;;;;;;28.67;13.40;;;;;;;;;;4910656;29;20577;-82
2023/04/21 04:26:04;;;;;;;30.15;13.13;;;;;;;;;;4917408;29;20048;-84
2023/04/21 04:28:32;;;;;;;34.20;14.32;;;;;;;;;;4926056;29;20051;-80
2023/04/21 04:30:59;;;;;;;26.55;12.85;;;;;;;;;;4925087;29;20074;-85
2023/04/21 04:33:26;;;;;;;28.02;12.70;;;;;;;;;;4943040;29;20079;-86
2023/04/21 04:35:53;;;;;;;25.08;11.45;;;;;;;;;;4928237;29;20274;-87
2023/04/21 04:38:21;;;;;;;24.67;11.23;;;;;;;;;;4928459;29;20074;-86
2023/04/21 04:40:56;;;;;;;23.75;11.73;;;;;;;;;;4911404;29;20500;-86
2023/04/21 04:43:24;;;;;;;22.23;11.75;;;;;;;;;;4930027;29;20547;-88
2023/04/21 04:45:50;;;;;;;29.48;11.88;;;;;;;;;;4927274;29;20068;-87
2023/04/21 04:48:17;;;;;;;25.95;12.98;;;;;;;;;;4927339;29;20046;-87
2023/04/21 04:50:44;;;;;;;32.88;13.82;;;;;;;;;;4927121;29;20107;-87
2023/04/21 04:53:10;;;;;;;33.53;14.35;;;;;;;;;;4927929;29;20048;-86
2023/04/21 04:55:37;;;;;;;31.80;15.13;;;;;;;;;;4925578;29;20048;-86
2023/04/21 04:58:04;;;;;;;30.45;13.40;;;;;;;;;;4941415;29;20054;-86
2023/04/21 05:00:31;;;;;;;31.63;14.10;;;;;;;;;;4926348;29;20455;-84
2023/04/21 05:02:58;;;;;;;25.92;14.82;;;;;;;;;;4943806;29;20047;-87
2023/04/21 05:05:24;;;;;;;37.03;14.88;;;;;;;;;;4928055;29;20043;-86
2023/04/21 05:07:51;;;;;;;29.95;15.18;;;;;;;;;;4928479;29;20047;-86
2023/04/21 05:10:18;;;;;;;31.52;14.65;;;;;;;;;;4945744;29;20047;-86
2023/04/21 05:12:45;;;;;;;33.42;15.57;;;;;;;;;;4930643;29;20062;-85
2023/04/21 05:15:11;;;;;;;28.02;14.18;;;;;;;;;;4935263;29;20043;-88
2023/04/21 05:17:38;;;;;;;29.23;14.35;;;;;;;;;;4945614;29;20103;-88
2023/04/21 05:20:06;;;;;;;35.03;13.43;;;;;;;;;;4957159;29;20066;-88
2023/04/21 05:22:37;;;;;;;33.97;13.48;;;;;;;;;;4926826;29;20500;-88
2023/04/21 05:25:04;;;;;;;34.50;14.10;;;;;;;;;;4942978;29;20051;-88
2023/04/21 05:27:32;;;;;;;28.85;13.38;;;;;;;;;;4946122;29;20051;-88
2023/04/21 05:29:59;;;;;;;27.75;13.25;;;;;;;;;;4930497;29;20051;-88
2023/04/21 05:32:26;;;;;;;29.17;14.10;;;;;;;;;;4923643;29;20115;-86
2023/04/21 05:34:53;;;;;;;26.52;13.23;;;;;;;;;;4926907;29;20051;-87
2023/04/21 05:37:20;;;;;;;26.65;11.80;;;;;;;;;;4934341;29;20501;-90
2023/04/21 05:39:46;;;;;;;27.88;11.63;;;;;;;;;;4932116;29;20779;-89
2023/04/21 05:42:13;;;;;;;26.52;11.27;;;;;;;;;;4917068;29;20055;-89
2023/04/21 05:44:40;;;;;;;21.23;10.52;;;;;;;;;;4948134;29;20075;-89
2023/04/21 05:47:07;;;;;;;30.33;9.70;;;;;;;;;;4942611;29;20067;-89
2023/04/21 05:49:33;;;;;;;18.63;9.02;;;;;;;;;;4933813;29;20047;-88
2023/04/21 05:52:02;;;;;;;22.77;8.88;;;;;;;;;;4948645;29;20060;-90
2023/04/21 05:54:28;;;;;;;21.50;8.50;;;;;;;;;;4946885;29;20067;-89
2023/04/21 05:56:55;;;;;;;22.17;8.85;;;;;;;;;;4937553;29;20052;-88
2023/04/21 05:59:22;;;;;;;19.20;8.27;;;;;;;;;;4932533;29;20051;-88
2023/04/21 06:01:50;;;;;;;20.35;8.48;;;;;;;;;;4948674;29;20063;-90
2023/04/21 06:04:16;;;;;;;16.33;8.27;;;;;;;;;;4930526;29;20048;-88
2023/04/21 06:06:44;;;;;;;21.55;8.50;;;;;;;;;;4931587;29;20044;-87
2023/04/21 06:09:14;;;;;;;19.85;7.97;;;;;;;;;;4929886;29;20087;-89
2023/04/21 06:11:41;;;;;;;15.70;8.05;;;;;;;;;;4933858;29;20099;-89
2023/04/21 06:14:08;;;;;;;23.40;8.68;;;;;;;;;;4932417;29;20476;-90
2023/04/21 06:16:35;;;;;;;19.13;8.05;;;;;;;;;;4935119;29;20047;-90
2023/04/21 06:19:03;;;;;;;18.38;7.90;;;;;;;;;;4916776;29;20071;-89
2023/04/21 06:21:31;;;;;;;19.52;8.00;;;;;;;;;;4931470;29;20062;-90
2023/04/21 06:23:58;;;;;;;20.90;6.93;;;;;;;;;;4924908;29;20040;-89
2023/04/21 06:26:25;;;;;;;21.42;7.53;;;;;;;;;;4922306;29;20048;-89
2023/04/21 06:28:52;;;;;;;19.10;6.90;;;;;;;;;;4924007;29;20052;-89
2023/04/21 06:31:20;;;;;;;23.65;6.25;;;;;;;;;;4906815;29;20047;-90
2023/04/21 06:33:49;;;;;;;19.73;6.53;;;;;;;;;;4922289;29;20056;-90
2023/04/21 06:36:16;;;;;;;18.85;6.03;;;;;;;;;;4937390;29;20056;-89
2023/04/21 06:38:43;;;;;;;17.50;5.60;;;;;;;;;;4925051;29;20099;-89
2023/04/21 06:41:11;;;;;;;20.55;5.45;;;;;;;;;;4910090;29;20048;-89
2023/04/21 06:43:37;;;;;;;17.38;5.80;;;;;;;;;;4923610;29;20044;-88
2023/04/21 06:46:07;;;;;;;16.38;5.43;;;;;;;;;;4938780;29;20055;-89
2023/04/21 06:48:35;;;;;;;17.63;5.15;;;;;;;;;;4906156;29;20074;-90
2023/04/21 06:51:03;;;;;;;16.95;5.03;;;;;;;;;;4922139;29;20078;-88
2023/04/21 06:53:31;;;;;;;15.43;4.75;;;;;;;;;;4926266;29;20052;-89
2023/04/21 06:55:58;;;;;;;11.65;4.22;;;;;;;;;;4927952;29;20048;-88
2023/04/21 06:58:25;;;;;;;14.30;4.35;;;;;;;;;;4949115;28;20078;-88
2023/04/21 07:00:52;;;;;;;13.85;4.60;;;;;;;;;;4962127;29;20114;-88
2023/04/21 07:03:23;;;;;;;21.10;4.10;;;;;;;;;;4946865;28;20102;-89
2023/04/21 07:05:50;;;;;;;13.30;3.50;;;;;;;;;;4945264;29;20043;-89
2023/04/21 07:08:16;;;;;;;9.55;3.95;;;;;;;;;;4960742;29;20059;-89
2023/04/21 07:10:44;;;;;;;12.98;4.03;;;;;;;;;;4945442;29;20043;-89
2023/04/21 07:13:11;;;;;;;11.82;3.90;;;;;;;;;;4960221;28;20032;-88
2023/04/21 07:15:38;;;;;;;16.85;4.38;;;;;;;;;;4962971;29;20054;-88
2023/04/21 07:18:06;;;;;;;17.88;3.75;;;;;;;;;;4965148;29;20125;-88
2023/04/21 07:20:32;;;;;;;14.82;3.85;;;;;;;;;;4964023;29;20054;-89
2023/04/21 07:22:59;;;;;;;16.02;3.75;;;;;;;;;;4953349;29;20098;-89
2023/04/21 07:25:26;;;;;;;12.45;3.63;;;;;;;;;;4952037;29;20130;-87
2023/04/21 07:27:53;;;;;;;13.30;3.47;;;;;;;;;;4933041;29;20059;-87
2023/04/21 07:30:20;;;;;;;10.18;3.60;;;;;;;;;;4929153;29;20040;-89
2023/04/21 07:32:49;;;;;;;17.23;4.25;;;;;;;;;;4927344;29;20056;-88
2023/04/21 07:35:16;;;;;;;14.93;3.50;;;;;;;;;;4928022;29;20615;-88
2023/04/21 07:37:45;;;;;;;11.93;3.50;;;;;;;;;;4942679;29;20064;-88
2023/04/21 07:40:13;;;;;;;10.18;3.60;;;;;;;;;;4913668;29;20365;-87
2023/04/21 07:42:43;;;;;;;12.15;3.50;;;;;;;;;;4942499;29;20054;-88
2023/04/21 07:45:10;;;;;;;12.82;3.30;;;;;;;;;;4927874;29;20082;-89
2023/04/21 07:47:40;;;;;;;11.15;3.67;;;;;;;;;;4925815;29;20063;-88
2023/04/21 07:50:09;;;;;;;13.30;3.30;;;;;;;;;;4911017;29;20061;-86
2023/04/21 07:52:36;;;;;;;11.63;3.40;;;;;;;;;;4925623;29;20044;-88
2023/04/21 07:55:03;;;;;;;12.65;3.88;;;;;;;;;;4926241;29;20516;-88
2023/04/21 07:57:33;;;;;;;12.43;3.67;;;;;;;;;;4925711;29;20072;-88
2023/04/21 08:00:01;;;;;;;12.57;3.58;;;;;;;;;;4926119;29;20048;-89
2023/04/21 08:02:37;;;;;;;11.32;3.47;;;;;;;;;;4944523;29;20449;-87
2023/04/21 08:05:08;;;;;;;9.80;3.40;;;;;;;;;;4909757;29;20337;-87
2023/04/21 08:07:35;;;;;;;12.70;3.80;;;;;;;;;;4927475;29;20461;-86
2023/04/21 08:10:03;;;;;;;8.13;3.10;;;;;;;;;;4929103;29;20052;-87
2023/04/21 08:12:29;;;;;;;10.13;3.25;;;;;;;;;;4927816;29;20063;-87
2023/04/21 08:14:57;;;;;;;16.25;3.72;;;;;;;;;;4945489;29;20243;-87
2023/04/21 08:17:23;;;;;;;13.82;3.75;;;;;;;;;;4942814;29;20513;-87
2023/04/21 08:19:50;;;;;;;12.88;3.15;;;;;;;;;;4927248;29;20069;-87
2023/04/21 08:22:17;;;;;;;7.30;3.40;;;;;;;;;;4942161;29;20044;-87
2023/04/21 08:24:44;;;;;;;8.73;2.90;;;;;;;;;;4946037;29;20528;-86
2023/04/21 08:27:11;;;;;;;15.93;3.40;;;;;;;;;;4943427;29;20044;-87
2023/04/21 08:29:38;;;;;;;7.25;3.17;;;;;;;;;;4942257;29;20044;-87
2023/04/21 08:32:05;;;;;;;8.80;3.20;;;;;;;;;;4925711;29;20044;-85
2023/04/21 08:34:33;;;;;;;10.13;3.42;;;;;;;;;;4940184;29;20055;-87
2023/04/21 08:37:01;;;;;;;12.05;4.03;;;;;;;;;;4924136;29;20122;-86
2023/04/21 08:39:28;;;;;;;7.63;3.50;;;;;;;;;;4926084;29;20059;-87
2023/04/21 08:41:56;;;;;;;13.57;3.92;;;;;;;;;;4924311;29;20043;-87
2023/04/21 08:44:25;;;;;;;14.45;4.13;;;;;;;;;;4923950;29;20048;-87
2023/04/21 08:46:53;;;;;;;8.43;3.92;;;;;;;;;;4939264;29;20054;-87
2023/04/21 08:49:20;;;;;;;8.07;3.65;;;;;;;;;;4924043;29;20640;-87
2023/04/21 08:51:47;;;;;;;9.70;3.92;;;;;;;;;;4922649;29;20052;-85
2023/04/21 08:54:14;;;;;;;9.77;3.85;;;;;;;;;;4945245;29;20361;-85
2023/04/21 08:56:41;;;;;;;9.27;3.83;;;;;;;;;;4950586;29;20047;-87
2023/04/21 08:59:07;;;;;;;8.48;3.75;;;;;;;;;;4937366;29;20047;-86
2023/04/21 09:01:54;;;;;;;9.95;3.40;;;;;;;;;;4925741;29;20713;-84
2023/04/21 09:04:23;;;;;;;6.57;3.22;;;;;;;;;;4961257;28;20049;-84
2023/04/21 09:06:50;;;;;;;7.50;3.60;;;;;;;;;;4940481;29;20109;-85
2023/04/21 09:09:17;;;;;;;8.80;3.63;;;;;;;;;;4921390;29;20532;-85
2023/04/21 09:11:53;;;;;;;7.43;3.75;;;;;;;;;;4933705;29;20043;-84
2023/04/21 09:14:19;;;;;;;7.03;3.65;;;;;;;;;;4940655;29;20098;-87
2023/04/21 09:16:57;;;;;;;9.30;3.70;;;;;;;;;;4917079;29;20147;-84
2023/04/21 09:19:28;;;;;;;7.90;3.60;;;;;;;;;;4928648;29;20058;-84
2023/04/21 09:21:55;;;;;;;8.30;3.88;;;;;;;;;;4934760;29;20056;-84
2023/04/21 09:24:23;;;;;;;13.20;3.63;;;;;;;;;;4924161;29;20492;-85
2023/04/21 09:26:51;;;;;;;17.08;4.07;;;;;;;;;;4909103;29;20055;-83
2023/04/21 09:29:21;;;;;;;7.97;3.70;;;;;;;;;;4919954;29;20051;-84
2023/04/21 09:31:48;;;;;;;13.43;3.65;;;;;;;;;;4937834;29;20055;-84
2023/04/21 09:34:19;;;;;;;7.95;3.47;;;;;;;;;;4904045;29;20119;-85
2023/04/21 09:36:47;;;;;;;7.05;3.53;;;;;;;;;;4933100;29;20055;-84
2023/04/21 09:39:13;;;;;;;11.73;3.63;;;;;;;;;;4921349;29;20043;-84
2023/04/21 09:41:44;;;;;;;8.88;3.55;;;;;;;;;;4917074;29;20505;-84
2023/04/21 09:44:11;;;;;;;11.13;3.70;;;;;;;;;;4924789;29;20051;-86
2023/04/21 09:46:42;;;;;;;11.95;3.78;;;;;;;;;;4950020;29;20111;-83
2023/04/21 09:49:12;;;;;;;16.17;4.38;;;;;;;;;;4919133;29;20040;-83
2023/04/21 09:51:39;;;;;;;7.60;3.42;;;;;;;;;;4946325;29;20047;-84
2023/04/21 09:54:29;;;;;;;9.05;3.60;;;;;;;;;;4919587;29;20059;-85
2023/04/21 09:56:58;;;;;;;8.88;3.35;;;;;;;;;;4929106;29;20062;-84
2023/04/21 09:59:28;;;;;;;10.35;3.80;;;;;;;;;;4916959;29;20529;-84
2023/04/21 10:01:56;;;;;;;9.85;3.67;;;;;;;;;;4932544;29;20047;-85
2023/04/21 10:04:27;;;;;;;6.28;3.50;;;;;;;;;;4907141;29;20052;-85
2023/04/21 10:06:55;;;;;;;12.45;3.35;;;;;;;;;;4935704;29;20051;-83
2023/04/21 10:09:24;;;;;;;6.47;3.45;;;;;;;;;;4940818;29;20120;-84
2023/04/21 10:11:51;;;;;;;8.38;3.15;;;;;;;;;;4933481;29;20066;-83
2023/04/21 10:14:18;;;;;;;8.52;3.80;;;;;;;;;;4950775;29;20039;-83
2023/04/21 10:16:55;;;;;;;7.35;3.55;;;;;;;;;;4936985;29;20064;-83
2023/04/21 10:19:24;;;;;;;5.75;3.50;;;;;;;;;;4935070;29;20075;-84
2023/04/21 10:21:51;;;;;;;5.40;3.05;;;;;;;;;;4915243;29;20048;-84
2023/04/21 10:24:17;;;;;;;6.35;3.10;;;;;;;;;;4931492;29;20040;-84
2023/04/21 10:26:44;;;;;;;12.45;3.65;;;;;;;;;;4915815;29;20076;-84
2023/04/21 10:29:11;;;;;;;7.05;3.40;;;;;;;;;;4932166;29;20039;-86
2023/04/21 10:31:53;;;;;;;6.80;3.65;;;;;;;;;;4918227;29;20719;-84
2023/04/21 10:34:21;;;;;;;10.82;3.42;;;;;;;;;;4935285;29;20044;-86
2023/04/21 10:36:50;;;;;;;10.32;3.97;;;;;;;;;;4926953;29;20051;-86
2023/04/21 10:39:30;;;;;;;4.72;3.25;;;;;;;;;;4941186;29;20043;-85
2023/04/21 10:41:57;;;;;;;6.63;3.08;;;;;;;;;;4936487;29;20122;-84
2023/04/21 10:44:24;;;;;;;7.32;3.42;;;;;;;;;;4935863;29;20059;-85
2023/04/21 10:46:51;;;;;;;7.32;3.20;;;;;;;;;;4935851;29;20497;-87
2023/04/21 10:49:30;;;;;;;5.60;3.25;;;;;;;;;;4940584;29;20063;-86
2023/04/21 10:52:01;;;;;;;6.15;3.65;;;;;;;;;;4942993;29;20159;-87
2023/04/21 10:54:30;;;;;;;8.10;3.08;;;;;;;;;;4945162;29;20079;-86
2023/04/21 10:56:57;;;;;;;6.38;3.55;;;;;;;;;;4940290;29;20047;-87
2023/04/21 10:59:27;;;;;;;7.03;3.50;;;;;;;;;;4925513;29;20448;-88
2023/04/21 11:01:56;;;;;;;7.07;3.13;;;;;;;;;;4941835;29;20531;-87
2023/04/21 11:04:22;;;;;;;10.63;3.40;;;;;;;;;;4924309;29;20103;-85
2023/04/21 11:07:10;;;;;;;9.43;3.42;;;;;;;;;;4938129;29;20067;-87
2023/04/21 11:09:39;;;;;;;11.50;3.60;;;;;;;;;;4928090;29;20044;-87
2023/04/21 11:12:09;;;;;;;10.88;3.70;;;;;;;;;;4947128;29;20078;-85
2023/04/21 11:14:40;;;;;;;6.80;3.00;;;;;;;;;;4955007;29;20056;-86
2023/04/21 11:17:10;;;;;;;6.93;3.67;;;;;;;;;;4928762;29;20062;-88
2023/04/21 11:19:37;;;;;;;7.28;3.38;;;;;;;;;;4926254;29;20504;-86
2023/04/21 11:22:04;;;;;;;6.68;3.53;;;;;;;;;;4939414;29;20071;-85
2023/04/21 11:24:31;;;;;;;11.35;2.83;;;;;;;;;;4938372;29;20353;-86
2023/04/21 11:27:00;;;;;;;9.27;3.58;;;;;;;;;;4939136;29;20451;-86
2023/04/21 11:29:30;;;;;;;13.48;3.42;;;;;;;;;;4943793;29;20055;-88
2023/04/21 11:31:59;;;;;;;7.63;3.20;;;;;;;;;;4939610;29;20067;-88
2023/04/21 11:34:25;;;;;;;5.25;2.80;;;;;;;;;;4936092;29;20359;-87
2023/04/21 11:36:54;;;;;;;8.85;3.38;;;;;;;;;;4939893;29;20408;-86
2023/04/21 11:39:21;;;;;;;10.10;3.22;;;;;;;;;;4924868;29;20082;-86
2023/04/21 11:41:48;;;;;;;7.20;3.05;;;;;;;;;;4936565;29;20040;-86
2023/04/21 11:44:36;;;;;;;5.07;2.88;;;;;;;;;;4905211;29;20067;-86
2023/04/21 11:47:12;;;;;;;8.40;3.25;;;;;;;;;;4936887;29;20075;-86
2023/04/21 11:49:49;;;;;;;7.57;2.88;;;;;;;;;;4940036;29;20044;-86
2023/04/21 11:52:47;;;;;;;7.55;3.25;;;;;;;;;;4909843;29;20079;-86
2023/04/21 11:55:18;;;;;;;5.82;2.92;;;;;;;;;;4925913;29;20048;-85
2023/04/21 11:57:45;;;;;;;8.40;3.10;;;;;;;;;;4928483;29;20059;-87
2023/04/21 12:00:15;;;;;;;7.10;2.97;;;;;;;;;;4946846;29;20047;-86
2023/04/21 12:02:53;;;;;;;5.90;3.00;;;;;;;;;;4909863;29;20066;-85
2023/04/21 12:05:19;;;;;;;7.38;2.92;;;;;;;;;;4922405;29;20429;-85
2023/04/21 12:07:48;;;;;;;7.72;3.30;;;;;;;;;;4920191;29;20578;-84
2023/04/21 12:10:21;;;;;;;5.53;3.15;;;;;;;;;;4920339;29;20090;-83
2023/04/21 12:12:48;;;;;;;7.25;3.35;;;;;;;;;;4935322;29;20071;-84
2023/04/21 12:15:17;;;;;;;9.00;3.22;;;;;;;;;;4917219;29;20048;-83
2023/04/21 12:17:46;;;;;;;6.57;3.13;;;;;;;;;;4932755;29;20179;-84
2023/04/21 12:20:16;;;;;;;8.65;3.22;;;;;;;;;;4931944;29;20044;-84
2023/04/21 12:22:44;;;;;;;10.70;3.30;;;;;;;;;;4932198;29;20131;-84
2023/04/21 12:25:11;;;;;;;11.27;2.90;;;;;;;;;;4916123;29;20553;-85
2023/04/21 12:27:46;;;;;;;5.90;3.22;;;;;;;;;;4932028;29;20044;-84
2023/04/21 12:30:13;;;;;;;7.47;3.08;;;;;;;;;;4934634;29;20099;-84
2023/04/21 12:32:40;;;;;;;7.07;3.10;;;;;;;;;;4916826;29;20047;-83
2023/04/21 12:35:08;;;;;;;7.93;3.30;;;;;;;;;;4917932;29;20107;-82
2023/04/21 12:37:35;;;;;;;7.85;2.95;;;;;;;;;;4938486;29;20036;-85
2023/04/21 12:40:02;;;;;;;5.80;3.22;;;;;;;;;;4936181;29;20252;-83
2023/04/21 12:42:28;;;;;;;5.60;3.40;;;;;;;;;;4919496;29;20254;-81
2023/04/21 12:44:55;;;;;;;7.55;3.22;;;;;;;;;;4919535;29;20054;-82
2023/04/21 12:47:23;;;;;;;9.18;3.20;;;;;;;;;;4943967;29;20139;-76
2023/04/21 12:49:49;;;;;;;5.22;2.63;;;;;;;;;;4921415;29;20035;-77
2023/04/21 12:52:16;;;;;;;4.95;2.80;;;;;;;;;;4938390;29;20043;-76
2023/04/21 12:54:44;;;;;;;10.93;2.85;;;;;;;;;;4939593;28;20051;-74
2023/04/21 12:57:11;;;;;;;7.20;2.85;;;;;;;;;;4902760;29;20043;-83
2023/04/21 12:59:42;;;;;;;6.63;2.65;;;;;;;;;;4922987;29;20043;-84
2023/04/21 13:02:12;;;;;;;5.35;2.30;;;;;;;;;;4940811;29;20048;-82
2023/04/21 13:04:40;;;;;;;6.40;2.85;;;;;;;;;;4929216;29;20126;-86
2023/04/21 13:07:09;;;;;;;7.20;2.88;;;;;;;;;;4925664;29;20047;-82
2023/04/21 13:09:35;;;;;;;6.18;2.90;;;;;;;;;;4940786;29;20051;-82
2023/04/21 13:12:02;;;;;;;9.82;2.90;;;;;;;;;;4941668;29;20058;-84
2023/04/21 13:14:31;;;;;;;6.70;3.03;;;;;;;;;;4920584;29;20044;-83
2023/04/21 13:16:58;;;;;;;10.50;3.15;;;;;;;;;;4945492;29;20046;-78
2023/04/21 13:19:25;;;;;;;8.63;3.13;;;;;;;;;;4922875;29;20043;-78
2023/04/21 13:21:52;;;;;;;8.32;2.67;;;;;;;;;;4923232;29;20779;-78
2023/04/21 13:24:20;;;;;;;6.85;2.60;;;;;;;;;;4911657;29;20054;-80
2023/04/21 13:26:47;;;;;;;9.05;2.70;;;;;;;;;;4918227;29;20039;-78
2023/04/21 13:29:13;;;;;;;9.68;3.20;;;;;;;;;;4933194;29;20035;-80
2023/04/21 13:31:41;;;;;;;4.45;2.70;;;;;;;;;;4918797;29;20064;-83
2023/04/21 13:34:07;;;;;;;10.27;2.70;;;;;;;;;;4931314;29;20051;-78
2023/04/21 13:36:34;;;;;;;10.98;2.35;;;;;;;;;;4935916;29;20059;-80
2023/04/21 13:39:01;;;;;;;5.47;2.35;;;;;;;;;;4934259;29;20040;-79
2023/04/21 13:41:27;;;;;;;7.68;2.30;;;;;;;;;;4931037;29;20150;-82
2023/04/21 13:43:54;;;;;;;4.57;2.60;;;;;;;;;;4932482;29;20070;-81
2023/04/21 13:46:21;;;;;;;5.65;2.38;;;;;;;;;;4938050;29;20115;-74
2023/04/21 13:48:53;;;;;;;9.73;2.70;;;;;;;;;;4898008;29;20048;-73
2023/04/21 13:51:28;;;;;;;9.02;2.78;;;;;;;;;;4914794;29;20053;-81
2023/04/21 13:53:55;;;;;;;6.28;2.38;;;;;;;;;;4929098;29;20048;-79
2023/04/21 13:56:22;;;;;;;9.07;2.75;;;;;;;;;;4935453;29;20044;-79
2023/04/21 13:58:48;;;;;;;8.40;2.88;;;;;;;;;;4921356;29;20052;-81
2023/04/21 14:01:20;;;;;;;6.10;2.95;;;;;;;;;;4938576;29;20051;-78
2023/04/21 14:03:52;;;;;;;6.85;2.45;;;;;;;;;;4937082;29;20469;-81
2023/04/21 14:06:19;;;;;;;11.40;2.47;;;;;;;;;;4935806;29;20460;-79
2023/04/21 14:08:46;;;;;;;11.98;2.60;;;;;;;;;;4955592;29;20090;-79
2023/04/21 14:11:12;;;;;;;5.00;2.53;;;;;;;;;;4942248;29;20047;-79
2023/04/21 14:13:39;;;;;;;7.03;2.70;;;;;;;;;;4958499;28;20130;-80
2023/04/21 14:16:25;;;;;;;12.15;2.60;;;;;;;;;;4953233;29;20098;-80
2023/04/21 14:18:51;;;;;;;5.00;2.58;;;;;;;;;;4957062;29;20047;-80
2023/04/21 14:21:18;;;;;;;6.30;2.47;;;;;;;;;;4955199;29;20066;-80
2023/04/21 14:23:45;;;;;;;4.82;2.30;;;;;;;;;;4936494;29;20058;-82
2023/04/21 14:26:11;;;;;;;5.13;2.30;;;;;;;;;;4953825;29;20043;-79
2023/04/21 14:28:39;;;;;;;5.35;2.60;;;;;;;;;;4952846;29;20055;-80
2023/04/21 14:31:05;;;;;;;5.78;2.72;;;;;;;;;;4920918;29;20082;-80
2023/04/21 14:33:34;;;;;;;8.07;2.65;;;;;;;;;;4917008;29;20052;-80